createdAt,value
2022-12-01T00:01:18.515Z,101374.81
2022-12-01T00:03:45.880Z,101378.63
2022-12-01T00:06:15.714Z,101377.38
2022-12-01T00:08:43.919Z,101380.34
2022-12-01T00:11:12.061Z,101377.09
2022-12-01T00:13:40.708Z,101393.84
2022-12-01T00:16:12.081Z,101377.13
2022-12-01T00:18:39.506Z,101375.75
2022-12-01T00:21:14.045Z,101379.84
2022-12-01T00:23:43.874Z,101382.91
2022-12-01T00:26:11.667Z,101382.59
2022-12-01T00:28:40.350Z,101381.31
2022-12-01T00:31:08.833Z,101375.75
2022-12-01T00:33:36.404Z,101382.91
2022-12-01T00:36:05.617Z,101380.88
2022-12-01T00:38:33.146Z,101381.31
2022-12-01T00:41:00.904Z,101376.97
2022-12-01T00:43:28.221Z,101367.88
2022-12-01T00:45:57.624Z,101379.06
2022-12-01T00:48:25.517Z,101375.59
2022-12-01T00:50:54.965Z,101374.03
2022-12-01T00:53:22.327Z,101375.16
2022-12-01T00:55:50.231Z,101376.63
2022-12-01T00:58:17.633Z,101372.16
2022-12-01T01:00:45.260Z,101370.09
2022-12-01T01:03:13.908Z,101366.13
2022-12-01T01:05:43.175Z,101371.88
2022-12-01T01:08:11.993Z,101366.44
2022-12-01T01:10:40.655Z,101362.59
2022-12-01T01:13:08.063Z,101363.09
2022-12-01T01:15:36.019Z,101362.84
2022-12-01T01:18:03.869Z,101355.03
2022-12-01T01:20:34.930Z,101357.50
2022-12-01T01:23:02.371Z,101361.69
2022-12-01T01:25:32.093Z,101360.91
2022-12-01T01:27:59.285Z,101354.94
2022-12-01T01:30:27.031Z,101355.13
2022-12-01T01:32:54.356Z,101349.50
2022-12-01T01:35:21.986Z,101354.72
2022-12-01T01:37:50.701Z,101354.97
2022-12-01T01:40:18.982Z,101354.69
2022-12-01T01:42:46.464Z,101345.59
2022-12-01T01:45:20.747Z,101345.72
2022-12-01T01:47:50.697Z,101346.16
2022-12-01T01:50:22.329Z,101345.16
2022-12-01T01:52:55.851Z,101343.69
2022-12-01T01:55:23.935Z,101344.78
2022-12-01T01:57:51.578Z,101351.34
2022-12-01T02:00:20.468Z,101352.81
2022-12-01T02:02:49.318Z,101337.28
2022-12-01T02:05:20.595Z,101337.72
2022-12-01T02:07:48.622Z,101343.28
2022-12-01T02:10:18.928Z,101348.13
2022-12-01T02:13:05.834Z,101333.72
2022-12-01T02:15:41.230Z,101342.69
2022-12-01T02:18:23.176Z,101337.06
2022-12-01T02:21:28.431Z,101345.22
2022-12-01T02:24:37.299Z,101339.88
2022-12-01T02:27:12.800Z,101342.34
2022-12-01T02:30:09.177Z,101349.78
2022-12-01T02:32:49.409Z,101348.44
2022-12-01T02:35:24.544Z,101336.88
2022-12-01T02:38:03.576Z,101348.94
2022-12-01T02:40:36.893Z,101346.94
2022-12-01T02:43:13.076Z,101341.03
2022-12-01T02:45:47.869Z,101334.28
2022-12-01T02:48:22.794Z,101327.44
2022-12-01T02:50:52.824Z,101326.47
2022-12-01T02:53:22.577Z,101320.69
2022-12-01T02:55:52.199Z,101326.50
2022-12-01T02:58:20.891Z,101324.78
2022-12-01T03:01:10.788Z,101323.47
2022-12-01T03:03:55.989Z,101325.03
2022-12-01T03:06:33.851Z,101324.03
2022-12-01T03:09:10.073Z,101321.22
2022-12-01T03:11:44.522Z,101300.31
2022-12-01T03:14:23.485Z,101310.41
2022-12-01T03:16:53.135Z,101310.50
2022-12-01T03:19:29.689Z,101313.75
2022-12-01T03:22:04.725Z,101304.81
2022-12-01T03:24:34.960Z,101306.88
2022-12-01T03:27:03.884Z,101305.44
2022-12-01T03:29:34.972Z,101309.16
2022-12-01T03:32:07.372Z,101299.59
2022-12-01T03:34:41.241Z,101310.00
2022-12-01T03:37:10.502Z,101319.44
2022-12-01T03:39:40.001Z,101312.66
2022-12-01T03:42:13.516Z,101315.09
2022-12-01T03:44:46.859Z,101313.41
2022-12-01T03:47:18.359Z,101313.25
2022-12-01T03:49:50.884Z,101316.47
2022-12-01T03:52:30.419Z,101316.25
2022-12-01T03:55:07.516Z,101323.16
2022-12-01T03:57:41.317Z,101314.09
2022-12-01T04:00:10.702Z,101311.91
2022-12-01T04:02:38.454Z,101312.84
2022-12-01T04:05:08.432Z,101306.25
2022-12-01T04:07:35.859Z,101310.63
2022-12-01T04:10:04.252Z,101309.25
2022-12-01T04:12:31.520Z,101307.06
2022-12-01T04:15:00.775Z,101314.16
2022-12-01T04:17:29.123Z,101314.06
2022-12-01T04:19:56.926Z,101318.16
2022-12-01T04:22:26.650Z,101323.81
2022-12-01T04:24:54.338Z,101318.50
2022-12-01T04:27:21.828Z,101316.47
2022-12-01T04:29:50.152Z,101311.69
2022-12-01T04:32:17.634Z,101316.28
2022-12-01T04:34:45.515Z,101317.81
2022-12-01T04:37:12.906Z,101309.09
2022-12-01T04:39:42.534Z,101316.09
2022-12-01T04:42:10.638Z,101316.28
2022-12-01T04:44:38.956Z,101312.41
2022-12-01T04:47:07.053Z,101322.25
2022-12-01T04:49:35.384Z,101329.78
2022-12-01T04:52:02.871Z,101327.06
2022-12-01T04:54:30.663Z,101326.72
2022-12-01T04:56:59.283Z,101333.03
2022-12-01T04:59:27.370Z,101330.91
2022-12-01T05:01:54.704Z,101328.78
2022-12-01T05:04:22.798Z,101325.38
2022-12-01T05:06:50.359Z,101324.66
2022-12-01T05:09:18.181Z,101324.56
2022-12-01T05:11:45.507Z,101329.81
2022-12-01T05:14:14.847Z,101326.38
2022-12-01T05:16:42.593Z,101328.00
2022-12-01T05:19:10.467Z,101317.41
2022-12-01T05:21:37.935Z,101325.09
2022-12-01T05:24:06.644Z,101328.09
2022-12-01T05:26:34.103Z,101322.03
2022-12-01T05:29:02.555Z,101321.31
2022-12-01T05:31:31.624Z,101331.16
2022-12-01T05:34:00.249Z,101324.75
2022-12-01T05:36:27.839Z,101322.63
2022-12-01T05:38:55.890Z,101323.97
2022-12-01T05:41:23.153Z,101324.75
2022-12-01T05:43:51.084Z,101331.78
2022-12-01T05:46:18.592Z,101325.84
2022-12-01T05:48:48.078Z,101329.63
2022-12-01T05:51:16.915Z,101328.00
2022-12-01T05:53:44.923Z,101327.84
2022-12-01T05:56:12.417Z,101332.88
2022-12-01T05:58:40.126Z,101328.00
2022-12-01T06:01:07.724Z,101319.84
2022-12-01T06:03:35.329Z,101324.22
2022-12-01T06:06:04.900Z,101334.16
2022-12-01T06:08:32.371Z,101327.47
2022-12-01T06:11:00.277Z,101342.19
2022-12-01T06:13:30.955Z,101333.13
2022-12-01T06:15:59.969Z,101334.31
2022-12-01T06:18:28.200Z,101332.41
2022-12-01T06:20:56.006Z,101333.19
2022-12-01T06:23:30.022Z,101332.06
2022-12-01T06:25:58.442Z,101327.19
2022-12-01T06:28:25.661Z,101331.75
2022-12-01T06:30:57.831Z,101333.34
2022-12-01T06:33:28.663Z,101336.19
2022-12-01T06:35:59.793Z,101333.88
2022-12-01T06:38:31.619Z,101329.53
2022-12-01T06:41:00.189Z,101332.78
2022-12-01T06:43:27.941Z,101334.31
2022-12-01T06:46:01.307Z,101335.25
2022-12-01T06:48:29.761Z,101330.72
2022-12-01T06:50:58.202Z,101336.25
2022-12-01T06:53:25.745Z,101340.88
2022-12-01T06:55:55.123Z,101332.00
2022-12-01T06:58:22.825Z,101328.91
2022-12-01T07:00:52.415Z,101335.41
2022-12-01T07:03:19.989Z,101345.81
2022-12-01T07:05:55.380Z,101344.41
2022-12-01T07:08:22.716Z,101347.66
2022-12-01T07:10:59.399Z,101343.63
2022-12-01T07:13:32.853Z,101352.53
2022-12-01T07:16:02.426Z,101360.63
2022-12-01T07:18:29.931Z,101355.91
2022-12-01T07:21:00.213Z,101354.31
2022-12-01T07:23:27.993Z,101362.50
2022-12-01T07:26:01.328Z,101357.81
2022-12-01T07:28:28.815Z,101359.94
2022-12-01T07:31:02.130Z,101349.34
2022-12-01T07:33:29.896Z,101356.06
2022-12-01T07:35:58.334Z,101355.88
2022-12-01T07:38:27.493Z,101356.16
2022-12-01T07:40:55.114Z,101340.81
2022-12-01T07:43:23.913Z,101351.16
2022-12-01T07:45:51.705Z,101353.63
2022-12-01T07:48:19.050Z,101357.31
2022-12-01T07:50:47.035Z,101364.69
2022-12-01T07:53:20.609Z,101366.84
2022-12-01T07:55:49.424Z,101368.00
2022-12-01T07:58:16.608Z,101362.22
2022-12-01T08:00:46.237Z,101359.66
2022-12-01T08:03:13.918Z,101369.34
2022-12-01T08:05:41.885Z,101369.28
2022-12-01T08:08:09.563Z,101364.66
2022-12-01T08:10:37.751Z,101364.59
2022-12-01T08:13:05.347Z,101362.88
2022-12-01T08:15:33.260Z,101357.88
2022-12-01T08:18:02.550Z,101359.38
2022-12-01T08:20:30.401Z,101358.81
2022-12-01T08:23:00.500Z,101360.03
2022-12-01T08:25:28.751Z,101355.34
2022-12-01T08:27:56.844Z,101358.34
2022-12-01T08:30:24.926Z,101357.91
2022-12-01T08:32:53.718Z,101353.84
2022-12-01T08:35:23.355Z,101353.44
2022-12-01T08:37:52.079Z,101356.56
2022-12-01T08:40:19.988Z,101351.84
2022-12-01T08:42:47.328Z,101356.75
2022-12-01T08:45:15.435Z,101360.22
2022-12-01T08:47:42.723Z,101364.06
2022-12-01T08:50:10.645Z,101365.38
2022-12-01T08:52:39.519Z,101358.09
2022-12-01T08:55:10.749Z,101358.31
2022-12-01T08:57:38.037Z,101361.13
2022-12-01T09:00:06.978Z,101361.59
2022-12-01T09:02:34.805Z,101361.22
2022-12-01T09:05:03.569Z,101366.31
2022-12-01T09:07:31.354Z,101365.69
2022-12-01T09:10:00.681Z,101368.09
2022-12-01T09:12:29.545Z,101359.31
2022-12-01T09:14:57.302Z,101372.16
2022-12-01T09:17:24.666Z,101364.38
2022-12-01T09:19:52.703Z,101363.53
2022-12-01T09:22:20.158Z,101369.13
2022-12-01T09:24:47.941Z,101366.19
2022-12-01T09:27:16.593Z,101367.69
2022-12-01T09:29:44.295Z,101363.94
2022-12-01T09:32:11.514Z,101365.88
2022-12-01T09:34:39.201Z,101358.69
2022-12-01T09:37:06.504Z,101362.28
2022-12-01T09:39:34.157Z,101362.13
2022-12-01T09:42:09.026Z,101357.16
2022-12-01T09:44:43.966Z,101352.91
2022-12-01T09:47:18.081Z,101351.50
2022-12-01T09:49:53.009Z,101346.00
2022-12-01T09:52:21.898Z,101343.97
2022-12-01T09:54:49.969Z,101337.81
2022-12-01T09:57:28.502Z,101337.53
2022-12-01T09:59:59.249Z,101335.91
2022-12-01T10:02:33.286Z,101328.97
2022-12-01T10:05:04.959Z,101325.97
2022-12-01T10:07:36.822Z,101324.34
2022-12-01T10:10:12.079Z,101329.72
2022-12-01T10:12:43.441Z,101330.34
2022-12-01T10:15:30.072Z,101330.41
2022-12-01T10:18:07.971Z,101333.63
2022-12-01T10:20:44.978Z,101326.31
2022-12-01T10:23:31.558Z,101328.13
2022-12-01T10:26:03.741Z,101326.88
2022-12-01T10:28:53.954Z,101324.69
2022-12-01T10:31:31.293Z,101327.19
2022-12-01T10:34:01.693Z,101320.47
2022-12-01T10:36:32.930Z,101320.25
2022-12-01T10:39:02.020Z,101315.03
2022-12-01T10:41:33.988Z,101312.66
2022-12-01T10:44:04.970Z,101311.72
2022-12-01T10:46:41.045Z,101310.19
2022-12-01T10:49:10.439Z,101315.41
2022-12-01T10:51:51.365Z,101309.59
2022-12-01T10:54:19.860Z,101308.06
2022-12-01T10:56:49.795Z,101305.91
2022-12-01T10:59:26.937Z,101310.19
2022-12-01T11:01:58.347Z,101303.72
2022-12-01T11:04:36.380Z,101300.19
2022-12-01T11:07:04.555Z,101301.09
2022-12-01T11:09:32.497Z,101290.84
2022-12-01T11:12:15.896Z,101295.47
2022-12-01T11:14:47.432Z,101295.09
2022-12-01T11:17:29.610Z,101291.59
2022-12-01T11:19:57.315Z,101289.09
2022-12-01T11:22:27.746Z,101289.94
2022-12-01T11:25:01.510Z,101288.41
2022-12-01T11:27:32.813Z,101280.00
2022-12-01T11:30:02.607Z,101285.63
2022-12-01T11:32:35.174Z,101289.78
2022-12-01T11:35:06.282Z,101290.84
2022-12-01T11:37:39.295Z,101288.75
2022-12-01T11:40:13.683Z,101286.53
2022-12-01T11:42:42.308Z,101280.94
2022-12-01T11:45:27.840Z,101278.91
2022-12-01T11:48:02.720Z,101282.22
2022-12-01T11:50:32.431Z,101278.91
2022-12-01T11:53:00.415Z,101280.69
2022-12-01T11:55:31.636Z,101274.44
2022-12-01T11:58:02.806Z,101273.75
2022-12-01T12:00:41.980Z,101273.75
2022-12-01T12:03:21.293Z,101279.34
2022-12-01T12:06:31.853Z,101278.88
2022-12-01T12:09:03.424Z,101273.84
2022-12-01T12:11:43.480Z,101279.25
2022-12-01T12:14:29.967Z,101280.66
2022-12-01T12:17:18.998Z,101277.91
2022-12-01T12:20:27.836Z,101284.06
2022-12-01T12:23:05.953Z,101276.41
2022-12-01T12:25:47.312Z,101272.91
2022-12-01T12:28:27.629Z,101273.41
2022-12-01T12:31:08.245Z,101265.72
2022-12-01T12:33:53.375Z,101272.56
2022-12-01T12:36:32.639Z,101271.22
2022-12-01T12:39:16.355Z,101271.03
2022-12-01T12:41:46.352Z,101270.84
2022-12-01T12:44:32.366Z,101279.00
2022-12-01T12:47:09.981Z,101277.19
2022-12-01T12:49:44.587Z,101278.44
2022-12-01T12:52:18.727Z,101270.28
2022-12-01T12:54:50.727Z,101278.25
2022-12-01T12:57:29.552Z,101274.53
2022-12-01T13:00:02.284Z,101278.25
2022-12-01T13:02:36.415Z,101277.19
2022-12-01T13:05:09.998Z,101282.50
2022-12-01T13:07:44.976Z,101278.91
2022-12-01T13:10:22.281Z,101278.81
2022-12-01T13:12:56.888Z,101284.41
2022-12-01T13:15:25.548Z,101277.41
2022-12-01T13:17:57.588Z,101283.75
2022-12-01T13:20:28.197Z,101279.59
2022-12-01T13:23:00.117Z,101286.97
2022-12-01T13:25:31.243Z,101287.72
2022-12-01T13:28:02.490Z,101282.69
2022-12-01T13:30:30.121Z,101290.28
2022-12-01T13:33:00.840Z,101283.81
2022-12-01T13:35:31.255Z,101287.16
2022-12-01T13:41:14.913Z,101291.22
2022-12-01T13:43:53.344Z,101295.44
2022-12-01T13:46:26.027Z,101290.97
2022-12-01T13:48:55.608Z,101290.34
2022-12-01T13:51:23.278Z,101290.00
2022-12-01T13:53:58.492Z,101296.09
2022-12-01T13:56:39.481Z,101296.97
2022-12-01T13:59:40.687Z,101293.91
2022-12-01T14:02:16.497Z,101288.44
2022-12-01T14:04:44.721Z,101282.09
2022-12-01T14:07:35.323Z,101288.25
2022-12-01T14:10:25.952Z,101288.53
2022-12-01T14:12:58.083Z,101287.38
2022-12-01T14:15:36.009Z,101287.50
2022-12-01T14:18:20.164Z,101286.00
2022-12-01T14:20:49.444Z,101291.09
2022-12-01T14:23:23.404Z,101294.06
2022-12-01T14:26:01.797Z,101290.94
2022-12-01T14:29:19.677Z,101287.63
2022-12-01T14:32:19.824Z,101282.16
2022-12-01T14:34:52.780Z,101290.47
2022-12-01T14:37:25.016Z,101288.00
2022-12-01T14:39:57.681Z,101282.75
2022-12-01T14:42:33.370Z,101284.72
2022-12-01T14:45:04.068Z,101286.06
2022-12-01T14:47:42.668Z,101290.03
2022-12-01T14:52:47.323Z,101277.50
2022-12-01T14:55:18.724Z,101281.97
2022-12-01T14:57:49.725Z,101285.75
2022-12-01T15:00:20.067Z,101281.88
2022-12-01T15:02:54.014Z,101281.53
2022-12-01T15:05:24.649Z,101280.81
2022-12-01T15:08:06.707Z,101276.28
2022-12-01T15:10:50.355Z,101278.13
2022-12-01T15:13:23.239Z,101270.06
2022-12-01T15:15:52.567Z,101271.69
2022-12-01T15:18:29.043Z,101273.50
2022-12-01T15:21:00.727Z,101270.81
2022-12-01T15:23:28.826Z,101266.66
2022-12-01T15:25:56.344Z,101259.16
2022-12-01T15:28:31.517Z,101267.53
2022-12-01T15:31:00.435Z,101266.78
2022-12-01T15:33:36.765Z,101261.25
2022-12-01T15:36:06.944Z,101266.06
2022-12-01T15:38:37.053Z,101270.16
2022-12-01T15:41:28.629Z,101272.22
2022-12-01T15:43:56.803Z,101262.88
2022-12-01T15:46:31.198Z,101267.84
2022-12-01T15:49:18.418Z,101260.53
2022-12-01T15:51:46.951Z,101270.00
2022-12-01T15:54:20.965Z,101264.88
2022-12-01T15:56:53.409Z,101261.16
2022-12-01T15:59:33.383Z,101261.72
2022-12-01T16:02:07.094Z,101267.97
2022-12-01T16:04:36.985Z,101265.53
2022-12-01T16:07:07.233Z,101270.94
2022-12-01T16:09:36.724Z,101268.56
2022-12-01T16:12:20.853Z,101264.09
2022-12-01T16:14:54.674Z,101269.31
2022-12-01T16:17:23.193Z,101269.31
2022-12-01T16:20:16.682Z,101265.53
2022-12-01T16:22:46.177Z,101271.69
2022-12-01T16:25:18.974Z,101273.38
2022-12-01T16:27:54.679Z,101265.84
2022-12-01T16:30:25.066Z,101269.00
2022-12-01T16:33:01.356Z,101270.22
2022-12-01T16:35:32.003Z,101262.47
2022-12-01T16:38:00.544Z,101265.63
2022-12-01T16:40:28.340Z,101264.56
2022-12-01T16:42:55.789Z,101266.06
2022-12-01T16:45:24.112Z,101267.13
2022-12-01T16:47:51.515Z,101267.88
2022-12-01T16:50:21.696Z,101261.91
2022-12-01T16:52:50.342Z,101259.63
2022-12-01T16:55:36.445Z,101259.72
2022-12-01T16:58:03.745Z,101262.38
2022-12-01T17:00:31.858Z,101258.75
2022-12-01T17:02:59.994Z,101261.63
2022-12-01T17:05:27.899Z,101261.38
2022-12-01T17:07:56.768Z,101265.16
2022-12-01T17:10:24.858Z,101263.81
2022-12-01T17:12:52.448Z,101259.66
2022-12-01T17:15:20.484Z,101265.06
2022-12-01T17:17:47.842Z,101265.06
2022-12-01T17:20:16.120Z,101266.13
2022-12-01T17:22:43.784Z,101261.25
2022-12-01T17:25:13.023Z,101263.91
2022-12-01T17:27:40.434Z,101261.38
2022-12-01T17:30:12.167Z,101262.78
2022-12-01T17:32:39.475Z,101260.41
2022-12-01T17:35:08.163Z,101258.72
2022-12-01T17:37:35.665Z,101252.94
2022-12-01T17:40:03.858Z,101264.47
2022-12-01T17:42:33.554Z,101257.38
2022-12-01T17:45:01.643Z,101254.25
2022-12-01T17:47:29.442Z,101252.53
2022-12-01T17:49:57.360Z,101261.00
2022-12-01T17:52:28.330Z,101254.25
2022-12-01T17:54:56.689Z,101255.19
2022-12-01T17:57:24.524Z,101254.91
2022-12-01T17:59:53.781Z,101253.88
2022-12-01T18:02:21.309Z,101252.53
2022-12-01T18:04:49.923Z,101251.59
2022-12-01T18:07:17.771Z,101257.66
2022-12-01T18:09:45.854Z,101262.69
2022-12-01T18:12:13.609Z,101261.44
2022-12-01T18:14:41.717Z,101267.81
2022-12-01T18:17:10.819Z,101260.97
2022-12-01T18:19:38.933Z,101268.97
2022-12-01T18:22:06.491Z,101260.97
2022-12-01T18:24:34.769Z,101268.84
2022-12-01T18:27:02.094Z,101264.97
2022-12-01T18:29:29.932Z,101263.44
2022-12-01T18:31:58.844Z,101266.19
2022-12-01T18:34:28.820Z,101262.69
2022-12-01T18:36:56.715Z,101264.56
2022-12-01T18:39:24.650Z,101268.38
2022-12-01T18:41:51.986Z,101263.53
2022-12-01T18:44:19.603Z,101263.13
2022-12-01T18:46:47.554Z,101259.06
2022-12-01T18:49:16.035Z,101266.16
2022-12-01T18:51:45.064Z,101260.72
2022-12-01T18:54:14.565Z,101263.44
2022-12-01T18:56:42.504Z,101257.75
2022-12-01T18:59:11.712Z,101267.34
2022-12-01T19:01:41.302Z,101262.41
2022-12-01T19:04:10.117Z,101251.50
2022-12-01T19:06:39.452Z,101255.22
2022-12-01T19:09:10.911Z,101246.75
2022-12-01T19:11:39.526Z,101248.66
2022-12-01T19:14:08.279Z,101250.00
2022-12-01T19:16:35.774Z,101259.34
2022-12-01T19:19:04.161Z,101248.09
2022-12-01T19:21:31.613Z,101249.78
2022-12-01T19:23:59.489Z,101249.09
2022-12-01T19:26:28.302Z,101249.94
2022-12-01T19:28:56.092Z,101248.34
2022-12-01T19:31:24.889Z,101244.19
2022-12-01T19:33:54.004Z,101248.66
2022-12-01T19:36:23.453Z,101249.25
2022-12-01T19:38:51.780Z,101250.66
2022-12-01T19:41:20.247Z,101257.28
2022-12-01T19:43:49.531Z,101254.06
2022-12-01T19:46:19.281Z,101254.63
2022-12-01T19:48:47.873Z,101255.25
2022-12-01T19:51:19.765Z,101248.53
2022-12-01T19:53:47.875Z,101248.44
2022-12-01T19:56:15.372Z,101255.00
2022-12-01T19:58:43.694Z,101252.44
2022-12-01T20:01:14.448Z,101247.50
2022-12-01T20:03:44.668Z,101251.00
2022-12-01T20:06:14.126Z,101253.28
2022-12-01T20:08:42.628Z,101255.25
2022-12-01T20:11:10.660Z,101247.78
2022-12-01T20:13:40.827Z,101237.63
2022-12-01T20:16:10.609Z,101238.63
2022-12-01T20:18:40.985Z,101244.28
2022-12-01T20:21:10.739Z,101240.97
2022-12-01T20:23:39.115Z,101246.09
2022-12-01T20:26:07.877Z,101240.19
2022-12-01T20:28:37.147Z,101239.97
2022-12-01T20:31:09.850Z,101238.34
2022-12-01T20:33:41.245Z,101244.09
2022-12-01T20:36:09.379Z,101236.88
2022-12-01T20:38:38.270Z,101231.25
2022-12-01T20:41:07.136Z,101240.78
2022-12-01T20:43:35.848Z,101227.28
2022-12-01T20:46:06.612Z,101230.97
2022-12-01T20:48:34.726Z,101237.41
2022-12-01T20:51:05.771Z,101241.53
2022-12-01T20:53:34.697Z,101238.22
2022-12-01T20:56:03.477Z,101238.50
2022-12-01T20:58:37.034Z,101234.63
2022-12-01T21:01:08.396Z,101238.69
2022-12-01T21:03:38.128Z,101240.41
2022-12-01T21:06:07.543Z,101234.81
2022-12-01T21:08:37.458Z,101242.78
2022-12-01T21:11:06.405Z,101236.47
2022-12-01T21:13:35.273Z,101237.22
2022-12-01T21:16:07.020Z,101242.03
2022-12-01T21:18:42.362Z,101242.41
2022-12-01T21:21:21.464Z,101237.00
2022-12-01T21:24:00.185Z,101241.44
2022-12-01T21:26:27.455Z,101245.75
2022-12-01T21:28:59.064Z,101243.03
2022-12-01T21:31:26.920Z,101236.56
2022-12-01T21:33:56.180Z,101235.38
2022-12-01T21:36:29.024Z,101242.06
2022-12-01T21:39:12.893Z,101242.91
2022-12-01T21:41:40.436Z,101240.16
2022-12-01T21:44:13.710Z,101235.13
2022-12-01T21:46:40.829Z,101237.69
2022-12-01T21:49:18.094Z,101228.28
2022-12-01T21:51:47.890Z,101238.13
2022-12-01T21:54:19.726Z,101237.31
2022-12-01T21:56:48.618Z,101231.78
2022-12-01T21:59:19.586Z,101233.63
2022-12-01T22:01:48.176Z,101229.75
2022-12-01T22:04:18.907Z,101231.28
2022-12-01T22:06:49.830Z,101236.00
2022-12-01T22:09:24.723Z,101233.09
2022-12-01T22:11:54.592Z,101231.94
2022-12-01T22:14:24.236Z,101223.84
2022-12-01T22:16:56.838Z,101223.81
2022-12-01T22:19:30.855Z,101231.38
2022-12-01T22:22:03.537Z,101222.38
2022-12-01T22:24:40.454Z,101222.00
2022-12-01T22:27:29.977Z,101218.16
2022-12-01T22:30:00.592Z,101224.22
2022-12-01T22:32:41.286Z,101222.25
2022-12-01T22:35:28.581Z,101225.88
2022-12-01T22:38:13.708Z,101225.97
2022-12-01T22:40:48.496Z,101219.59
2022-12-01T22:43:41.654Z,101227.31
2022-12-01T22:46:23.534Z,101219.22
2022-12-01T22:48:53.059Z,101220.56
2022-12-01T22:51:37.283Z,101222.59
2022-12-01T22:54:28.966Z,101224.59
2022-12-01T22:57:11.803Z,101214.09
2022-12-01T22:59:42.129Z,101223.25
2022-12-01T23:02:20.524Z,101221.53
2022-12-01T23:04:51.023Z,101219.53
2022-12-01T23:07:38.379Z,101219.94
2022-12-01T23:10:17.932Z,101212.47
2022-12-01T23:12:47.675Z,101207.25
2022-12-01T23:15:32.419Z,101207.59
2022-12-01T23:18:11.835Z,101202.38
2022-12-01T23:20:40.737Z,101194.91
2022-12-01T23:23:14.799Z,101194.44
2022-12-01T23:25:44.748Z,101190.16
2022-12-01T23:28:15.533Z,101190.91
2022-12-01T23:30:51.185Z,101188.25
2022-12-01T23:33:21.486Z,101187.13
2022-12-01T23:35:53.814Z,101184.97
2022-12-01T23:38:23.988Z,101184.38
2022-12-01T23:41:00.575Z,101188.56
2022-12-01T23:43:31.953Z,101187.75
2022-12-01T23:46:04.309Z,101187.84
2022-12-01T23:48:36.488Z,101181.63
2022-12-01T23:51:05.038Z,101186.22
2022-12-01T23:53:33.567Z,101182.25
2022-12-01T23:56:05.373Z,101173.38
2022-12-01T23:58:34.602Z,101175.16
